»·PEaware :: N956HP KSEA-KPDX

N956HP :: KSEA-KPDX

FLIGHT INFORMATION

Flight Status: Arrived
Operator: Privately registered:
United States
More flights under this callsign
Pilot: Herb P. (797)
Aircraft: BEECH AIRCRAFT SUPER KING AIR 350
(B350)
More flights by this aircraft type
Origin: KSEA Seattle-Tacoma Intl
United States
Destination: KPDX Portland Intl
United States
More flights between these airports :: More routes between these airports
Route: SEA BUWZO KRATR2
File this flight plan on PilotEdge
Remarks:
Altitude:
(Current/Filed)
19,000ft
Speed:
(Current/Filed)
250kts
Departed: 29-Oct-20 10:27 AM
Arrived: 29-Oct-20 11:04 AM
Distance/Time
Traveled:
113nm/0:36
Distance/Time
To Go:
Arrived

Flight Plot

Page will automatically refresh every two minutes.


Map Options




Map Legend


Flown Route
Filed Route
Departure Airport
Arrival Airport
Navaid (VOR, NDB)
Fix

Horizontal Profiles

Position Reports

Time Latitude Longitude Heading Altitude Ground
Speed
29-Oct-20 10:01 47.439169 -122.315227 55 352ft 0kts
29-Oct-20 10:02 47.439170 -122.315227 54 352ft 0kts
29-Oct-20 10:03 47.439169 -122.315227 55 352ft 0kts
29-Oct-20 10:04 47.439169 -122.315227 55 352ft 0kts
29-Oct-20 10:05 47.439169 -122.315227 55 352ft 0kts
29-Oct-20 10:06 47.439169 -122.315227 55 352ft 0kts
29-Oct-20 10:07 47.439169 -122.315227 55 352ft 0kts
29-Oct-20 10:08 47.439169 -122.315227 55 352ft 0kts
29-Oct-20 10:09 47.439169 -122.315227 55 352ft 0kts
29-Oct-20 10:10 47.439169 -122.315227 55 352ft 0kts
29-Oct-20 10:11 47.439169 -122.315227 55 352ft 0kts
29-Oct-20 10:12 47.439169 -122.315227 55 352ft 0kts
29-Oct-20 10:12 47.439169 -122.315227 55 352ft 0kts
29-Oct-20 10:14 47.439169 -122.315227 55 352ft 0kts
29-Oct-20 10:14 47.439169 -122.315227 55 352ft 0kts
29-Oct-20 10:16 47.439169 -122.315227 55 352ft 0kts
29-Oct-20 10:16 47.439169 -122.315227 55 352ft 0kts
29-Oct-20 10:17 47.439296 -122.315030 35 353ft 4kts
29-Oct-20 10:18 47.441774 -122.316431 330 354ft 0kts
29-Oct-20 10:19 47.439615 -122.314436 113 356ft 18kts
29-Oct-20 10:20 47.444432 -122.313599 359 372ft 21kts
29-Oct-20 10:21 47.449747 -122.313556 1 400ft 19kts
29-Oct-20 10:22 47.455500 -122.313481 1 399ft 10kts
29-Oct-20 10:23 47.459616 -122.313444 1 398ft 23kts
29-Oct-20 10:24 47.463681 -122.314412 269 364ft 12kts
29-Oct-20 10:25 47.463689 -122.316072 274 347ft 0kts
29-Oct-20 10:26 47.459775 -122.317914 180 329ft 89kts
29-Oct-20 10:27 47.420336 -122.313054 173 1945ft 154kts
29-Oct-20 10:28 47.377599 -122.305602 179 4028ft 158kts
29-Oct-20 10:29 47.333986 -122.301604 181 5997ft 159kts
29-Oct-20 10:30 47.289772 -122.294308 191 7814ft 160kts
29-Oct-20 10:31 47.243619 -122.298570 194 9037ft 191kts
29-Oct-20 10:32 47.185833 -122.307631 196 10053ft 203kts
29-Oct-20 10:33 47.133285 -122.314772 197 11876ft 183kts
29-Oct-20 10:34 47.082152 -122.320183 196 13328ft 210kts
29-Oct-20 10:35 47.021915 -122.320493 183 15186ft 222kts
29-Oct-20 10:36 46.959934 -122.310812 183 16927ft 228kts
29-Oct-20 10:37 46.897045 -122.309352 190 18510ft 228kts
29-Oct-20 10:38 46.828971 -122.309691 188 19025ft 272kts
29-Oct-20 10:39 46.748157 -122.309665 187 19005ft 306kts
29-Oct-20 10:40 46.660982 -122.309646 187 19000ft 319kts
29-Oct-20 10:41 46.571602 -122.309639 187 19000ft 323kts
29-Oct-20 10:42 46.482406 -122.309624 187 17549ft 313kts
29-Oct-20 10:43 46.397291 -122.309633 187 15925ft 304kts
29-Oct-20 10:44 46.313589 -122.309639 187 14319ft 299kts
29-Oct-20 10:45 46.233838 -122.322964 209 12732ft 280kts
29-Oct-20 10:46 46.161927 -122.362727 209 11277ft 268kts
29-Oct-20 10:47 46.092353 -122.401438 209 11286ft 275kts
29-Oct-20 10:48 46.020313 -122.440332 208 10247ft 272kts
29-Oct-20 10:49 45.949807 -122.478292 204 7401ft 259kts
29-Oct-20 10:50 45.897241 -122.531203 222 5850ft 220kts
29-Oct-20 10:51 45.853518 -122.586325 222 5010ft 203kts
29-Oct-20 10:52 45.811106 -122.639850 222 5017ft 203kts
29-Oct-20 10:53 45.769514 -122.696550 228 5012ft 208kts
29-Oct-20 10:54 45.754873 -122.766444 286 4980ft 182kts
29-Oct-20 10:55 45.752630 -122.819464 225 4745ft 133kts
29-Oct-20 10:56 45.720277 -122.853256 202 3289ft 160kts
29-Oct-20 10:57 45.685299 -122.861807 130 2924ft 122kts
29-Oct-20 10:58 45.670720 -122.817335 124 3205ft 126kts
29-Oct-20 10:59 45.652821 -122.770301 123 2775ft 155kts
29-Oct-20 11:00 45.634337 -122.722385 123 1688ft 134kts
29-Oct-20 11:01 45.617277 -122.678729 121 958ft 119kts
29-Oct-20 11:02 45.601718 -122.638296 121 281ft 114kts
29-Oct-20 11:03 45.591495 -122.612010 118 21ft 29kts
29-Oct-20 11:04 45.588394 -122.606146 212 18ft 14kts
29-Oct-20 11:05 45.584807 -122.611241 223 18ft 21kts
29-Oct-20 11:06 45.580857 -122.614101 155 18ft 4kts

Navigation Log

Ident Type
Flight plan parsing failed, navigation log unavailable